sensor_id;sensor_type;location;lat;lon;timestamp;pressure;altitude;pressure_sealevel;temperature;humidity
36222;BME280;22266;52.340;4.962;2022-10-16T00:01:12;100825.06;;;13.71;73.90
36222;BME280;22266;52.340;4.962;2022-10-16T00:03:41;100827.34;;;13.67;73.95
36222;BME280;22266;52.340;4.962;2022-10-16T00:06:09;100819.84;;;13.69;74.06
36222;BME280;22266;52.340;4.962;2022-10-16T00:08:37;100819.25;;;13.67;74.13
36222;BME280;22266;52.340;4.962;2022-10-16T00:11:15;100815.72;;;13.67;73.92
36222;BME280;22266;52.340;4.962;2022-10-16T00:13:43;100814.22;;;13.71;73.65
36222;BME280;22266;52.340;4.962;2022-10-16T00:16:11;100808.66;;;13.66;73.65
36222;BME280;22266;52.340;4.962;2022-10-16T00:18:38;100816.13;;;13.70;73.78
36222;BME280;22266;52.340;4.962;2022-10-16T00:21:10;100825.88;;;13.71;73.58
36222;BME280;22266;52.340;4.962;2022-10-16T00:23:37;100831.72;;;13.68;73.62
36222;BME280;22266;52.340;4.962;2022-10-16T00:26:07;100825.25;;;13.69;73.59
36222;BME280;22266;52.340;4.962;2022-10-16T00:28:34;100834.00;;;13.71;73.50
36222;BME280;22266;52.340;4.962;2022-10-16T00:31:06;100825.25;;;13.69;73.33
36222;BME280;22266;52.340;4.962;2022-10-16T00:33:33;100831.28;;;13.71;73.52
36222;BME280;22266;52.340;4.962;2022-10-16T00:36:00;100834.00;;;13.71;73.28
36222;BME280;22266;52.340;4.962;2022-10-16T00:38:27;100830.06;;;13.67;73.12
36222;BME280;22266;52.340;4.962;2022-10-16T00:40:53;100824.25;;;13.64;73.08
36222;BME280;22266;52.340;4.962;2022-10-16T00:43:39;100826.72;;;13.65;73.17
36222;BME280;22266;52.340;4.962;2022-10-16T00:46:21;100815.72;;;13.67;72.76
36222;BME280;22266;52.340;4.962;2022-10-16T00:48:58;100817.59;;;13.66;72.64
36222;BME280;22266;52.340;4.962;2022-10-16T00:51:36;100826.34;;;13.62;73.06
36222;BME280;22266;52.340;4.962;2022-10-16T00:54:05;100817.00;;;13.57;72.88
36222;BME280;22266;52.340;4.962;2022-10-16T00:56:34;100817.63;;;13.53;72.91
36222;BME280;22266;52.340;4.962;2022-10-16T00:59:03;100818.69;;;13.52;72.78
36222;BME280;22266;52.340;4.962;2022-10-16T01:01:32;100821.78;;;13.55;72.95
36222;BME280;22266;52.340;4.962;2022-10-16T01:03:59;100817.84;;;13.58;72.82
36222;BME280;22266;52.340;4.962;2022-10-16T01:06:36;100818.25;;;13.62;72.86
36222;BME280;22266;52.340;4.962;2022-10-16T01:09:22;100830.06;;;13.60;73.13
36222;BME280;22266;52.340;4.962;2022-10-16T01:11:56;100824.06;;;13.58;73.29
36222;BME280;22266;52.340;4.962;2022-10-16T01:14:37;100828.66;;;13.58;73.08
36222;BME280;22266;52.340;4.962;2022-10-16T01:17:27;100835.72;;;13.59;73.02
36222;BME280;22266;52.340;4.962;2022-10-16T01:20:06;100833.03;;;13.52;72.92
36222;BME280;22266;52.340;4.962;2022-10-16T01:25:59;100825.78;;;13.46;73.24
36222;BME280;22266;52.340;4.962;2022-10-16T01:28:35;100829.72;;;13.44;73.34
36222;BME280;22266;52.340;4.962;2022-10-16T01:31:04;100826.84;;;13.45;73.19
36222;BME280;22266;52.340;4.962;2022-10-16T01:33:38;100823.50;;;13.43;73.05
36222;BME280;22266;52.340;4.962;2022-10-16T01:36:16;100822.03;;;13.47;73.31
36222;BME280;22266;52.340;4.962;2022-10-16T01:38:46;100816.63;;;13.47;73.01
36222;BME280;22266;52.340;4.962;2022-10-16T01:41:19;100827.66;;;13.46;73.10
36222;BME280;22266;52.340;4.962;2022-10-16T01:44:01;100832.19;;;13.52;73.37
36222;BME280;22266;52.340;4.962;2022-10-16T01:46:31;100824.72;;;13.54;73.35
36222;BME280;22266;52.340;4.962;2022-10-16T01:48:59;100829.72;;;13.50;73.55
36222;BME280;22266;52.340;4.962;2022-10-16T01:51:28;100829.72;;;13.50;73.26
36222;BME280;22266;52.340;4.962;2022-10-16T01:53:58;100825.97;;;13.45;73.88
36222;BME280;22266;52.340;4.962;2022-10-16T01:56:27;100826.38;;;13.48;73.90
36222;BME280;22266;52.340;4.962;2022-10-16T01:59:09;100826.59;;;13.53;73.96
36222;BME280;22266;52.340;4.962;2022-10-16T02:01:39;100831.78;;;13.55;74.02
36222;BME280;22266;52.340;4.962;2022-10-16T02:04:30;100840.13;;;13.53;74.10
36222;BME280;22266;52.340;4.962;2022-10-16T02:06:58;100835.53;;;13.54;73.99
36222;BME280;22266;52.340;4.962;2022-10-16T02:09:25;100842.38;;;13.56;74.30
36222;BME280;22266;52.340;4.962;2022-10-16T02:11:54;100840.50;;;13.57;74.22
36222;BME280;22266;52.340;4.962;2022-10-16T02:14:23;100839.25;;;13.53;74.25
36222;BME280;22266;52.340;4.962;2022-10-16T02:16:50;100845.94;;;13.50;74.88
36222;BME280;22266;52.340;4.962;2022-10-16T02:19:18;100846.13;;;13.49;74.74
36222;BME280;22266;52.340;4.962;2022-10-16T02:21:51;100844.06;;;13.51;74.98
36222;BME280;22266;52.340;4.962;2022-10-16T02:24:33;100847.59;;;13.51;75.28
36222;BME280;22266;52.340;4.962;2022-10-16T02:27:13;100853.47;;;13.42;75.53
36222;BME280;22266;52.340;4.962;2022-10-16T02:29:47;100859.28;;;13.39;75.79
36222;BME280;22266;52.340;4.962;2022-10-16T02:32:20;100849.72;;;13.36;76.01
36222;BME280;22266;52.340;4.962;2022-10-16T02:34:49;100855.13;;;13.36;76.39
36222;BME280;22266;52.340;4.962;2022-10-16T02:37:17;100857.81;;;13.43;76.39
36222;BME280;22266;52.340;4.962;2022-10-16T02:39:44;100862.41;;;13.42;76.19
36222;BME280;22266;52.340;4.962;2022-10-16T02:42:14;100862.19;;;13.44;76.36
36222;BME280;22266;52.340;4.962;2022-10-16T02:44:41;100866.56;;;13.38;76.60
36222;BME280;22266;52.340;4.962;2022-10-16T02:47:07;100863.88;;;13.38;76.45
36222;BME280;22266;52.340;4.962;2022-10-16T02:49:34;100874.28;;;13.34;76.51
36222;BME280;22266;52.340;4.962;2022-10-16T02:52:00;100873.03;;;13.30;76.53
36222;BME280;22266;52.340;4.962;2022-10-16T02:54:27;100865.75;;;13.31;76.89
36222;BME280;22266;52.340;4.962;2022-10-16T02:56:53;100869.09;;;13.26;77.13
36222;BME280;22266;52.340;4.962;2022-10-16T02:59:20;100872.22;;;13.30;76.94
36222;BME280;22266;52.340;4.962;2022-10-16T03:01:47;100883.22;;;13.28;77.14
36222;BME280;22266;52.340;4.962;2022-10-16T03:04:13;100877.41;;;13.31;76.97
36222;BME280;22266;52.340;4.962;2022-10-16T03:06:40;100879.69;;;13.34;76.93
36222;BME280;22266;52.340;4.962;2022-10-16T03:09:06;100872.41;;;13.35;77.07
36222;BME280;22266;52.340;4.962;2022-10-16T03:11:32;100874.28;;;13.34;76.60
36222;BME280;22266;52.340;4.962;2022-10-16T03:13:59;100870.34;;;13.30;76.91
36222;BME280;22266;52.340;4.962;2022-10-16T03:16:25;100871.16;;;13.24;77.01
36222;BME280;22266;52.340;4.962;2022-10-16T03:18:52;100864.94;;;13.24;77.30
36222;BME280;22266;52.340;4.962;2022-10-16T03:21:18;100865.97;;;13.23;77.18
36222;BME280;22266;52.340;4.962;2022-10-16T03:23:44;100877.63;;;13.23;77.56
36222;BME280;22266;52.340;4.962;2022-10-16T03:26:11;100876.16;;;13.21;77.40
36222;BME280;22266;52.340;4.962;2022-10-16T03:28:37;100876.16;;;13.21;77.41
36222;BME280;22266;52.340;4.962;2022-10-16T03:31:04;100876.16;;;13.21;77.26
36222;BME280;22266;52.340;4.962;2022-10-16T03:33:30;100880.50;;;13.22;77.26
36222;BME280;22266;52.340;4.962;2022-10-16T03:35:57;100882.16;;;13.16;77.31
36222;BME280;22266;52.340;4.962;2022-10-16T03:38:24;100877.63;;;13.17;77.38
36222;BME280;22266;52.340;4.962;2022-10-16T03:40:51;100881.56;;;13.21;77.61
36222;BME280;22266;52.340;4.962;2022-10-16T03:43:17;100876.56;;;13.18;77.31
36222;BME280;22266;52.340;4.962;2022-10-16T03:45:43;100895.69;;;13.16;77.33
36222;BME280;22266;52.340;4.962;2022-10-16T03:48:10;100884.25;;;13.14;77.42
36222;BME280;22266;52.340;4.962;2022-10-16T03:50:37;100899.00;;;13.11;77.51
36222;BME280;22266;52.340;4.962;2022-10-16T03:53:03;100894.66;;;13.10;77.71
36222;BME280;22266;52.340;4.962;2022-10-16T03:55:30;100898.00;;;13.13;77.65
36222;BME280;22266;52.340;4.962;2022-10-16T03:57:56;100900.47;;;13.07;77.64
36222;BME280;22266;52.340;4.962;2022-10-16T04:00:23;100897.16;;;13.05;77.58
36222;BME280;22266;52.340;4.962;2022-10-16T04:02:49;100915.69;;;13.08;77.67
36222;BME280;22266;52.340;4.962;2022-10-16T04:05:15;100917.97;;;13.05;77.98
36222;BME280;22266;52.340;4.962;2022-10-16T04:07:42;100911.50;;;13.06;78.05
36222;BME280;22266;52.340;4.962;2022-10-16T04:10:08;100912.97;;;13.02;78.05
36222;BME280;22266;52.340;4.962;2022-10-16T04:12:35;100912.56;;;13.05;78.32
36222;BME280;22266;52.340;4.962;2022-10-16T04:15:02;100918.75;;;13.12;78.18
36222;BME280;22266;52.340;4.962;2022-10-16T04:17:28;100918.38;;;13.08;78.01
36222;BME280;22266;52.340;4.962;2022-10-16T04:19:55;100928.97;;;13.10;78.08
36222;BME280;22266;52.340;4.962;2022-10-16T04:22:21;100938.72;;;13.11;77.82
36222;BME280;22266;52.340;4.962;2022-10-16T04:24:48;100935.41;;;13.09;78.11
36222;BME280;22266;52.340;4.962;2022-10-16T04:27:14;100931.44;;;13.11;78.51
36222;BME280;22266;52.340;4.962;2022-10-16T04:29:40;100935.22;;;13.17;78.45
36222;BME280;22266;52.340;4.962;2022-10-16T04:32:08;100927.50;;;13.14;78.20
36222;BME280;22266;52.340;4.962;2022-10-16T04:34:35;100943.31;;;13.17;78.14
36222;BME280;22266;52.340;4.962;2022-10-16T04:37:01;100932.50;;;13.17;77.97
36222;BME280;22266;52.340;4.962;2022-10-16T04:39:27;100930.22;;;13.14;77.94
36222;BME280;22266;52.340;4.962;2022-10-16T04:41:54;100933.97;;;13.13;78.33
36222;BME280;22266;52.340;4.962;2022-10-16T04:44:20;100951.44;;;13.17;78.15
36222;BME280;22266;52.340;4.962;2022-10-16T04:46:47;100947.66;;;13.18;78.26
36222;BME280;22266;52.340;4.962;2022-10-16T04:49:13;100949.75;;;13.16;78.15
36222;BME280;22266;52.340;4.962;2022-10-16T04:51:39;100942.25;;;13.18;77.88
36222;BME280;22266;52.340;4.962;2022-10-16T04:54:06;100946.84;;;13.11;78.06
36222;BME280;22266;52.340;4.962;2022-10-16T04:56:32;100968.28;;;13.13;78.03
36222;BME280;22266;52.340;4.962;2022-10-16T04:58:59;100984.50;;;13.13;78.36
36222;BME280;22266;52.340;4.962;2022-10-16T05:03:55;101000.69;;;13.13;78.61
36222;BME280;22266;52.340;4.962;2022-10-16T05:06:21;101002.97;;;13.09;78.81
36222;BME280;22266;52.340;4.962;2022-10-16T05:08:47;100999.03;;;13.11;78.84
36222;BME280;22266;52.340;4.962;2022-10-16T05:11:14;101005.06;;;13.14;78.99
36222;BME280;22266;52.340;4.962;2022-10-16T05:13:40;101011.09;;;13.09;79.26
36222;BME280;22266;52.340;4.962;2022-10-16T05:16:07;101012.97;;;13.08;79.38
36222;BME280;22266;52.340;4.962;2022-10-16T05:18:33;101007.34;;;13.10;79.93
36222;BME280;22266;52.340;4.962;2022-10-16T05:21:00;101008.38;;;13.09;79.97
36222;BME280;22266;52.340;4.962;2022-10-16T05:23:26;101013.97;;;13.07;80.11
36222;BME280;22266;52.340;4.962;2022-10-16T05:25:54;101011.91;;;13.03;80.67
36222;BME280;22266;52.340;4.962;2022-10-16T05:28:21;101011.69;;;13.04;80.40
36222;BME280;22266;52.340;4.962;2022-10-16T05:30:48;101011.50;;;13.06;80.66
36222;BME280;22266;52.340;4.962;2022-10-16T05:33:14;101023.13;;;13.00;80.79
36222;BME280;22266;52.340;4.962;2022-10-16T05:35:40;101023.94;;;13.00;81.00
36222;BME280;22266;52.340;4.962;2022-10-16T05:38:07;101029.16;;;13.02;81.13
36222;BME280;22266;52.340;4.962;2022-10-16T05:40:33;101037.88;;;12.97;81.16
36222;BME280;22266;52.340;4.962;2022-10-16T05:43:00;101045.16;;;12.97;81.30
36222;BME280;22266;52.340;4.962;2022-10-16T05:45:26;101047.44;;;13.00;81.44
36222;BME280;22266;52.340;4.962;2022-10-16T05:47:53;101054.53;;;13.01;81.36
36222;BME280;22266;52.340;4.962;2022-10-16T05:50:19;101048.06;;;13.02;81.24
36222;BME280;22266;52.340;4.962;2022-10-16T05:52:46;101052.84;;;13.00;81.37
36222;BME280;22266;52.340;4.962;2022-10-16T05:55:12;101049.31;;;12.99;81.62
36222;BME280;22266;52.340;4.962;2022-10-16T05:57:38;101053.06;;;12.98;81.44
36222;BME280;22266;52.340;4.962;2022-10-16T06:00:05;101054.53;;;13.01;81.73
36222;BME280;22266;52.340;4.962;2022-10-16T06:02:37;101055.13;;;13.03;81.33
36222;BME280;22266;52.340;4.962;2022-10-16T06:05:04;101055.34;;;12.95;81.46
36222;BME280;22266;52.340;4.962;2022-10-16T06:07:34;101055.34;;;12.95;81.89
36222;BME280;22266;52.340;4.962;2022-10-16T06:10:00;101045.56;;;12.94;82.08
36222;BME280;22266;52.340;4.962;2022-10-16T06:12:27;101047.66;;;12.98;81.94
36222;BME280;22266;52.340;4.962;2022-10-16T06:14:53;101044.72;;;13.00;81.95
36222;BME280;22266;52.340;4.962;2022-10-16T06:17:20;101040.59;;;12.97;81.94
36222;BME280;22266;52.340;4.962;2022-10-16T06:19:46;101045.16;;;12.97;82.23
36222;BME280;22266;52.340;4.962;2022-10-16T06:22:12;101048.47;;;12.99;82.21
36222;BME280;22266;52.340;4.962;2022-10-16T06:24:39;101054.31;;;13.02;82.28
36222;BME280;22266;52.340;4.962;2022-10-16T06:27:05;101056.78;;;13.04;82.22
36222;BME280;22266;52.340;4.962;2022-10-16T06:29:32;101057.22;;;13.01;82.19
36222;BME280;22266;52.340;4.962;2022-10-16T06:31:59;101070.75;;;13.01;82.02
36222;BME280;22266;52.340;4.962;2022-10-16T06:34:25;101058.88;;;12.95;82.52
36222;BME280;22266;52.340;4.962;2022-10-16T06:36:52;101083.41;;;13.00;82.53
36222;BME280;22266;52.340;4.962;2022-10-16T06:39:18;101086.53;;;12.97;82.57
36222;BME280;22266;52.340;4.962;2022-10-16T06:41:44;101080.09;;;12.98;82.70
36222;BME280;22266;52.340;4.962;2022-10-16T06:44:14;101084.66;;;12.98;82.66
36222;BME280;22266;52.340;4.962;2022-10-16T06:46:41;101090.50;;;13.01;82.81
36222;BME280;22266;52.340;4.962;2022-10-16T06:49:07;101089.22;;;13.04;82.94
36222;BME280;22266;52.340;4.962;2022-10-16T06:51:33;101096.75;;;13.08;82.72
36222;BME280;22266;52.340;4.962;2022-10-16T06:54:07;101097.56;;;13.02;82.48
36222;BME280;22266;52.340;4.962;2022-10-16T06:56:34;101101.91;;;13.03;82.62
36222;BME280;22266;52.340;4.962;2022-10-16T06:59:00;101104.63;;;13.03;82.94
36222;BME280;22266;52.340;4.962;2022-10-16T07:01:27;101108.78;;;13.06;82.72
36222;BME280;22266;52.340;4.962;2022-10-16T07:03:54;101121.06;;;13.08;82.55
36222;BME280;22266;52.340;4.962;2022-10-16T07:06:23;101125.63;;;13.08;82.49
36222;BME280;22266;52.340;4.962;2022-10-16T07:08:50;101132.72;;;13.09;82.56
36222;BME280;22266;52.340;4.962;2022-10-16T07:11:19;101130.00;;;13.09;82.58
36222;BME280;22266;52.340;4.962;2022-10-16T07:13:46;101132.72;;;13.09;82.25
36222;BME280;22266;52.340;4.962;2022-10-16T07:16:22;101140.19;;;13.07;82.58
36222;BME280;22266;52.340;4.962;2022-10-16T07:18:49;101147.25;;;13.08;82.32
36222;BME280;22266;52.340;4.962;2022-10-16T07:21:23;101157.84;;;13.03;82.19
36222;BME280;22266;52.340;4.962;2022-10-16T07:23:53;101156.78;;;13.04;82.29
36222;BME280;22266;52.340;4.962;2022-10-16T07:26:19;101166.38;;;13.06;82.16
36222;BME280;22266;52.340;4.962;2022-10-16T07:28:46;101173.25;;;13.09;81.77
36222;BME280;22266;52.340;4.962;2022-10-16T07:31:14;101172.59;;;13.07;81.75
36222;BME280;22266;52.340;4.962;2022-10-16T07:33:42;101182.81;;;13.05;81.56
36222;BME280;22266;52.340;4.962;2022-10-16T07:36:11;101184.91;;;13.09;81.96
36222;BME280;22266;52.340;4.962;2022-10-16T07:38:42;101188.44;;;13.10;81.78
36222;BME280;22266;52.340;4.962;2022-10-16T07:41:10;101187.59;;;13.09;81.58
36222;BME280;22266;52.340;4.962;2022-10-16T07:43:37;101191.34;;;13.08;81.47
36222;BME280;22266;52.340;4.962;2022-10-16T07:46:04;101198.19;;;13.11;81.63
36222;BME280;22266;52.340;4.962;2022-10-16T07:48:33;101205.06;;;13.14;81.46
36222;BME280;22266;52.340;4.962;2022-10-16T07:51:03;101215.06;;;13.13;81.66
36222;BME280;22266;52.340;4.962;2022-10-16T07:53:29;101222.16;;;13.21;81.18
36222;BME280;22266;52.340;4.962;2022-10-16T07:56:04;101218.59;;;13.20;81.06
36222;BME280;22266;52.340;4.962;2022-10-16T07:58:33;101222.59;;;13.24;80.94
36222;BME280;22266;52.340;4.962;2022-10-16T08:01:04;101225.69;;;13.21;81.05
36222;BME280;22266;52.340;4.962;2022-10-16T08:03:31;101239.03;;;13.23;80.74
36222;BME280;22266;52.340;4.962;2022-10-16T08:05:58;101227.00;;;13.32;80.68
36222;BME280;22266;52.340;4.962;2022-10-16T08:08:25;101241.59;;;13.38;80.44
36222;BME280;22266;52.340;4.962;2022-10-16T08:10:52;101252.00;;;13.47;79.74
36222;BME280;22266;52.340;4.962;2022-10-16T08:13:18;101251.41;;;13.52;79.94
36222;BME280;22266;52.340;4.962;2022-10-16T08:15:45;101246.63;;;13.54;79.72
36222;BME280;22266;52.340;4.962;2022-10-16T08:18:14;101250.59;;;13.58;79.78
36222;BME280;22266;52.340;4.962;2022-10-16T08:20:41;101259.53;;;13.65;79.61
36222;BME280;22266;52.340;4.962;2022-10-16T08:23:12;101256.44;;;13.68;79.70
36222;BME280;22266;52.340;4.962;2022-10-16T08:25:40;101252.69;;;13.69;79.60
36222;BME280;22266;52.340;4.962;2022-10-16T08:28:08;101270.41;;;13.78;79.67
36222;BME280;22266;52.340;4.962;2022-10-16T08:30:35;101262.72;;;13.82;79.33
36222;BME280;22266;52.340;4.962;2022-10-16T08:33:02;101269.38;;;13.79;79.45
36222;BME280;22266;52.340;4.962;2022-10-16T08:35:29;101265.63;;;13.80;79.65
36222;BME280;22266;52.340;4.962;2022-10-16T08:37:56;101272.28;;;13.84;79.53
36222;BME280;22266;52.340;4.962;2022-10-16T08:40:25;101275.81;;;13.85;79.50
36222;BME280;22266;52.340;4.962;2022-10-16T08:45:47;101289.38;;;13.92;79.34
36222;BME280;22266;52.340;4.962;2022-10-16T08:49:09;101290.63;;;13.96;79.38
36222;BME280;22266;52.340;4.962;2022-10-16T08:51:18;101301.66;;;14.01;79.02
36222;BME280;22266;52.340;4.962;2022-10-16T08:53:55;101302.31;;;14.03;79.18
36222;BME280;22266;52.340;4.962;2022-10-16T08:56:23;101308.34;;;14.12;79.12
36222;BME280;22266;52.340;4.962;2022-10-16T08:58:51;101316.69;;;14.17;78.82
36222;BME280;22266;52.340;4.962;2022-10-16T09:01:28;101321.69;;;14.20;79.02
36222;BME280;22266;52.340;4.962;2022-10-16T09:07:13;101334.22;;;14.27;78.74
36222;BME280;22266;52.340;4.962;2022-10-16T09:12:40;101341.06;;;14.30;78.42
36222;BME280;22266;52.340;4.962;2022-10-16T09:15:17;101337.78;;;14.34;78.42
36222;BME280;22266;52.340;4.962;2022-10-16T09:18:05;101341.28;;;14.42;78.20
36222;BME280;22266;52.340;4.962;2022-10-16T09:20:44;101349.41;;;14.42;77.85
36222;BME280;22266;52.340;4.962;2022-10-16T09:23:29;101353.00;;;14.42;77.80
36222;BME280;22266;52.340;4.962;2022-10-16T09:25:58;101355.69;;;14.35;77.60
36222;BME280;22266;52.340;4.962;2022-10-16T09:28:25;101355.88;;;14.41;77.10
36222;BME280;22266;52.340;4.962;2022-10-16T09:30:51;101370.69;;;14.45;77.32
36222;BME280;22266;52.340;4.962;2022-10-16T09:33:21;101377.59;;;14.54;77.17
36222;BME280;22266;52.340;4.962;2022-10-16T09:35:54;101364.28;;;14.59;76.90
36222;BME280;22266;52.340;4.962;2022-10-16T09:38:32;101373.66;;;14.63;76.08
36222;BME280;22266;52.340;4.962;2022-10-16T09:41:01;101367.19;;;14.64;75.94
36222;BME280;22266;52.340;4.962;2022-10-16T09:43:40;101377.41;;;14.69;76.16
36222;BME280;22266;52.340;4.962;2022-10-16T09:46:25;101382.63;;;14.64;75.88
36222;BME280;22266;52.340;4.962;2022-10-16T09:48:55;101379.06;;;14.63;76.11
36222;BME280;22266;52.340;4.962;2022-10-16T09:51:36;101379.25;;;14.62;75.89
36222;BME280;22266;52.340;4.962;2022-10-16T09:56:34;101377.00;;;14.72;75.55
36222;BME280;22266;52.340;4.962;2022-10-16T09:59:22;101375.31;;;14.77;75.30
36222;BME280;22266;52.340;4.962;2022-10-16T10:01:54;101379.06;;;14.76;74.68
36222;BME280;22266;52.340;4.962;2022-10-16T10:04:23;101389.50;;;14.73;74.80
36222;BME280;22266;52.340;4.962;2022-10-16T10:06:52;101384.28;;;14.84;74.52
36222;BME280;22266;52.340;4.962;2022-10-16T10:09:38;101390.13;;;14.88;74.20
36222;BME280;22266;52.340;4.962;2022-10-16T10:12:06;101391.78;;;14.82;74.11
36222;BME280;22266;52.340;4.962;2022-10-16T10:14:49;101388.03;;;14.83;73.55
36222;BME280;22266;52.340;4.962;2022-10-16T10:17:21;101383.25;;;14.92;73.71
36222;BME280;22266;52.340;4.962;2022-10-16T10:19:55;101383.22;;;14.99;73.52
36222;BME280;22266;52.340;4.962;2022-10-16T10:30:34;101412.19;;;15.18;70.84
36222;BME280;22266;52.340;4.962;2022-10-16T10:38:50;101417.81;;;15.37;70.17
36222;BME280;22266;52.340;4.962;2022-10-16T10:55:15;101442.44;;;15.28;65.49
36222;BME280;22266;52.340;4.962;2022-10-16T10:58:21;101433.44;;;15.34;66.07
36222;BME280;22266;52.340;4.962;2022-10-16T11:01:20;101452.44;;;15.34;65.88
36222;BME280;22266;52.340;4.962;2022-10-16T11:04:27;101449.72;;;15.34;65.36
36222;BME280;22266;52.340;4.962;2022-10-16T11:07:00;101445.13;;;15.42;65.50
36222;BME280;22266;52.340;4.962;2022-10-16T11:09:33;101443.66;;;15.46;65.60
36222;BME280;22266;52.340;4.962;2022-10-16T11:12:18;101451.16;;;15.50;65.23
36222;BME280;22266;52.340;4.962;2022-10-16T11:14:49;101464.31;;;15.53;65.41
36222;BME280;22266;52.340;4.962;2022-10-16T11:22:50;101457.41;;;15.71;63.29
36222;BME280;22266;52.340;4.962;2022-10-16T11:25:29;101462.81;;;15.71;62.06
36222;BME280;22266;52.340;4.962;2022-10-16T11:27:58;101459.47;;;15.62;61.16
36222;BME280;22266;52.340;4.962;2022-10-16T11:30:29;101469.13;;;15.65;60.08
36222;BME280;22266;52.340;4.962;2022-10-16T11:35:41;101473.88;;;15.82;61.56
36222;BME280;22266;52.340;4.962;2022-10-16T11:38:15;101479.13;;;15.71;59.76
36222;BME280;22266;52.340;4.962;2022-10-16T11:40:47;101477.22;;;15.71;58.57
36222;BME280;22266;52.340;4.962;2022-10-16T11:43:26;101479.53;;;15.81;58.83
36222;BME280;22266;52.340;4.962;2022-10-16T11:45:58;101476.56;;;15.82;58.32
36222;BME280;22266;52.340;4.962;2022-10-16T11:48:51;101480.94;;;15.90;58.02
36222;BME280;22266;52.340;4.962;2022-10-16T11:51:31;101483.00;;;15.95;58.15
36222;BME280;22266;52.340;4.962;2022-10-16T11:54:54;101476.28;;;16.04;58.35
36222;BME280;22266;52.340;4.962;2022-10-16T11:57:20;101487.56;;;16.07;58.32
36222;BME280;22266;52.340;4.962;2022-10-16T12:00:01;101494.47;;;16.03;56.69
36222;BME280;22266;52.340;4.962;2022-10-16T12:08:11;101506.53;;;16.21;56.39
36222;BME280;22266;52.340;4.962;2022-10-16T12:10:42;101508.03;;;16.17;55.34
36222;BME280;22266;52.340;4.962;2022-10-16T12:13:28;101509.25;;;16.21;54.85
36222;BME280;22266;52.340;4.962;2022-10-16T12:18:42;101513.00;;;16.20;54.13
36222;BME280;22266;52.340;4.962;2022-10-16T12:21:10;101501.69;;;16.29;54.92
36222;BME280;22266;52.340;4.962;2022-10-16T12:23:51;101511.09;;;16.34;54.76
36222;BME280;22266;52.340;4.962;2022-10-16T12:26:27;101513.13;;;16.45;54.91
36222;BME280;22266;52.340;4.962;2022-10-16T12:28:55;101523.94;;;16.51;54.88
36222;BME280;22266;52.340;4.962;2022-10-16T12:31:22;101514.13;;;16.50;53.75
36222;BME280;22266;52.340;4.962;2022-10-16T12:34:03;101518.25;;;16.60;54.03
36222;BME280;22266;52.340;4.962;2022-10-16T12:36:32;101514.03;;;16.64;53.92
36222;BME280;22266;52.340;4.962;2022-10-16T12:39:00;101521.34;;;16.70;53.29
36222;BME280;22266;52.340;4.962;2022-10-16T12:41:30;101526.34;;;16.73;52.87
36222;BME280;22266;52.340;4.962;2022-10-16T12:43:58;101524.28;;;16.75;53.72
36222;BME280;22266;52.340;4.962;2022-10-16T12:51:42;101529.50;;;16.70;54.29
36222;BME280;22266;52.340;4.962;2022-10-16T12:54:18;101529.50;;;16.70;53.86
36222;BME280;22266;52.340;4.962;2022-10-16T12:57:09;101540.81;;;16.73;54.84
36222;BME280;22266;52.340;4.962;2022-10-16T13:08:48;101524.09;;;16.63;52.87
36222;BME280;22266;52.340;4.962;2022-10-16T13:11:39;101529.97;;;16.60;53.09
36222;BME280;22266;52.340;4.962;2022-10-16T13:14:25;101528.28;;;16.59;52.73
36222;BME280;22266;52.340;4.962;2022-10-16T13:19:43;101541.31;;;16.50;52.71
36222;BME280;22266;52.340;4.962;2022-10-16T13:25:32;101556.97;;;16.48;54.45
36222;BME280;22266;52.340;4.962;2022-10-16T13:28:06;101554.25;;;16.48;54.45
36222;BME280;22266;52.340;4.962;2022-10-16T13:33:07;101551.16;;;16.45;54.65
36222;BME280;22266;52.340;4.962;2022-10-16T13:35:35;101560.56;;;16.42;54.38
36222;BME280;22266;52.340;4.962;2022-10-16T13:38:23;101556.81;;;16.43;54.98
36222;BME280;22266;52.340;4.962;2022-10-16T13:41:02;101569.97;;;16.46;55.74
36222;BME280;22266;52.340;4.962;2022-10-16T13:43:39;101580.19;;;16.44;56.22
36222;BME280;22266;52.340;4.962;2022-10-16T13:48:37;101586.94;;;16.28;55.81
36222;BME280;22266;52.340;4.962;2022-10-16T13:51:13;101591.13;;;16.24;55.42
36222;BME280;22266;52.340;4.962;2022-10-16T13:53:41;101590.31;;;16.24;55.57
36222;BME280;22266;52.340;4.962;2022-10-16T13:56:13;101584.88;;;16.24;55.85
36222;BME280;22266;52.340;4.962;2022-10-16T13:58:40;101580.47;;;16.29;56.50
36222;BME280;22266;52.340;4.962;2022-10-16T14:01:20;101584.44;;;16.27;56.44
36222;BME280;22266;52.340;4.962;2022-10-16T14:04:15;101580.91;;;16.26;56.86
36222;BME280;22266;52.340;4.962;2022-10-16T14:06:44;101593.25;;;16.22;55.93
36222;BME280;22266;52.340;4.962;2022-10-16T14:09:24;101598.69;;;16.16;55.32
36222;BME280;22266;52.340;4.962;2022-10-16T14:11:58;101586.97;;;16.15;55.30
36222;BME280;22266;52.340;4.962;2022-10-16T14:14:27;101587.19;;;16.20;56.25
36222;BME280;22266;52.340;4.962;2022-10-16T14:16:58;101586.97;;;16.15;55.91
36222;BME280;22266;52.340;4.962;2022-10-16T14:19:27;101591.16;;;16.18;56.76
36222;BME280;22266;52.340;4.962;2022-10-16T14:21:56;101578.66;;;16.10;55.73
36222;BME280;22266;52.340;4.962;2022-10-16T14:24:31;101586.81;;;16.10;55.90
36222;BME280;22266;52.340;4.962;2022-10-16T14:26:58;101585.97;;;16.10;55.03
36222;BME280;22266;52.340;4.962;2022-10-16T14:29:27;101583.25;;;16.10;55.87
36222;BME280;22266;52.340;4.962;2022-10-16T14:32:01;101589.50;;;16.10;56.15
36222;BME280;22266;52.340;4.962;2022-10-16T14:34:31;101585.31;;;16.14;56.99
36222;BME280;22266;52.340;4.962;2022-10-16T14:37:05;101587.41;;;16.12;56.41